Time;durP1;ratioP1;P1;durP2;ratioP2;P2;SDS_P1;SDS_P2;PMS_P1;PMS_P2;Temp;Humidity;BMP_temperature;BMP_pressure;BME280_temperature;BME280_humidity;BME280_pressure;Samples;Min_cycle;Max_cycle;Signal;HPM_P1;HPM_P2
2023/10/29 00:00:39;;;;;;;3.85;2.03;;;;;;;;;;5123540;27;20056;-66
2023/10/29 00:03:06;;;;;;;3.63;1.65;;;;;;;;;;5105417;27;20024;-65
2023/10/29 00:05:33;;;;;;;5.35;1.95;;;;;;;;;;5122762;27;20030;-67
2023/10/29 00:08:08;;;;;;;4.15;2.45;;;;;;;;;;5115714;27;20038;-66
2023/10/29 00:10:36;;;;;;;4.25;1.80;;;;;;;;;;5101737;27;20036;-67
2023/10/29 00:13:02;;;;;;;3.63;1.90;;;;;;;;;;5109926;27;20179;-67
2023/10/29 00:15:30;;;;;;;4.60;1.70;;;;;;;;;;5125207;27;20486;-69
2023/10/29 00:17:56;;;;;;;2.08;1.58;;;;;;;;;;5118940;27;20054;-68
2023/10/29 00:20:23;;;;;;;1.50;1.40;;;;;;;;;;5107152;27;20465;-67
2023/10/29 00:22:49;;;;;;;1.33;1.25;;;;;;;;;;5117678;27;20087;-68
2023/10/29 00:25:15;;;;;;;1.40;1.30;;;;;;;;;;5119474;27;20328;-67
2023/10/29 00:27:41;;;;;;;2.92;1.52;;;;;;;;;;5101930;27;20027;-67
2023/10/29 00:30:07;;;;;;;2.53;1.65;;;;;;;;;;5120506;27;20048;-69
2023/10/29 00:32:33;;;;;;;1.40;1.30;;;;;;;;;;5102341;27;20187;-68
2023/10/29 00:35:00;;;;;;;1.73;1.50;;;;;;;;;;5097574;27;20053;-68
2023/10/29 00:37:26;;;;;;;1.40;1.30;;;;;;;;;;5120759;27;20031;-68
2023/10/29 00:39:53;;;;;;;1.63;1.52;;;;;;;;;;5105005;27;20032;-68
2023/10/29 00:42:19;;;;;;;1.33;1.33;;;;;;;;;;5117301;27;20343;-68
2023/10/29 00:44:50;;;;;;;1.30;1.30;;;;;;;;;;5117480;27;20030;-68
2023/10/29 00:47:16;;;;;;;1.50;1.40;;;;;;;;;;5113682;27;20031;-66
2023/10/29 00:49:42;;;;;;;2.58;1.30;;;;;;;;;;5116768;27;20019;-68
2023/10/29 00:52:09;;;;;;;1.30;1.30;;;;;;;;;;5122631;27;20027;-69
2023/10/29 00:54:35;;;;;;;1.40;1.35;;;;;;;;;;5108166;27;20158;-67
2023/10/29 00:57:01;;;;;;;1.50;1.40;;;;;;;;;;5118658;27;20027;-67
2023/10/29 00:59:32;;;;;;;1.70;1.60;;;;;;;;;;5115428;27;20019;-68
2023/10/29 01:01:58;;;;;;;2.13;1.52;;;;;;;;;;5121997;27;20035;-67
2023/10/29 01:04:24;;;;;;;1.95;1.55;;;;;;;;;;5116104;27;20031;-68
2023/10/29 01:06:50;;;;;;;1.80;1.70;;;;;;;;;;5117384;27;20035;-68
2023/10/29 01:09:17;;;;;;;2.45;1.70;;;;;;;;;;5123739;27;20038;-70
2023/10/29 01:11:43;;;;;;;1.90;1.70;;;;;;;;;;5117902;27;20041;-68
2023/10/29 01:14:10;;;;;;;1.80;1.70;;;;;;;;;;5116867;27;20374;-68
2023/10/29 01:16:36;;;;;;;1.90;1.80;;;;;;;;;;5111669;27;20027;-69
2023/10/29 01:19:02;;;;;;;1.90;1.80;;;;;;;;;;5114504;27;20023;-68
2023/10/29 01:21:29;;;;;;;1.70;1.60;;;;;;;;;;5114812;27;20036;-68
2023/10/29 01:23:55;;;;;;;2.10;1.90;;;;;;;;;;5117596;27;21303;-68
2023/10/29 01:26:21;;;;;;;2.38;2.03;;;;;;;;;;5122591;27;21746;-69
2023/10/29 01:28:48;;;;;;;2.20;1.98;;;;;;;;;;5116909;27;20166;-69
2023/10/29 01:31:17;;;;;;;3.03;1.90;;;;;;;;;;5119781;27;20031;-68
2023/10/29 01:33:43;;;;;;;1.80;1.70;;;;;;;;;;5110890;27;20110;-69
2023/10/29 01:36:09;;;;;;;1.80;1.70;;;;;;;;;;5113663;27;20068;-67
2023/10/29 01:38:35;;;;;;;2.10;1.90;;;;;;;;;;5104156;27;20024;-68
2023/10/29 01:41:02;;;;;;;1.73;1.63;;;;;;;;;;5120354;27;20046;-68
2023/10/29 01:43:28;;;;;;;2.03;1.80;;;;;;;;;;5118339;27;20369;-68
2023/10/29 01:45:54;;;;;;;1.70;1.60;;;;;;;;;;5117768;27;20019;-69
2023/10/29 01:48:23;;;;;;;1.75;1.60;;;;;;;;;;5114834;27;20441;-67
2023/10/29 01:50:50;;;;;;;2.40;1.60;;;;;;;;;;5120278;28;20087;-67
2023/10/29 01:53:16;;;;;;;1.60;1.50;;;;;;;;;;5115060;28;20042;-68
2023/10/29 01:55:42;;;;;;;1.92;1.50;;;;;;;;;;5115864;28;20030;-69
2023/10/29 01:58:08;;;;;;;3.67;1.60;;;;;;;;;;5108763;28;20031;-68
2023/10/29 02:00:34;;;;;;;1.33;1.30;;;;;;;;;;5121852;27;20059;-65
2023/10/29 02:03:01;;;;;;;1.75;1.65;;;;;;;;;;5120138;27;20030;-68
2023/10/29 02:05:27;;;;;;;1.50;1.40;;;;;;;;;;5111886;27;20019;-68
2023/10/29 02:07:53;;;;;;;1.70;1.60;;;;;;;;;;5117193;27;20062;-69
2023/10/29 02:10:19;;;;;;;1.98;1.50;;;;;;;;;;5124216;27;20027;-67
2023/10/29 02:12:48;;;;;;;1.50;1.40;;;;;;;;;;5116591;27;20042;-68
2023/10/29 02:15:14;;;;;;;2.35;1.75;;;;;;;;;;5116480;27;20719;-68
2023/10/29 02:17:40;;;;;;;1.65;1.55;;;;;;;;;;5106280;27;20052;-68
2023/10/29 02:20:07;;;;;;;1.58;1.40;;;;;;;;;;5119147;27;20066;-68
2023/10/29 02:22:33;;;;;;;1.63;1.52;;;;;;;;;;5117313;27;20020;-68
2023/10/29 02:25:10;;;;;;;1.50;1.40;;;;;;;;;;5109663;27;20047;-68
2023/10/29 02:27:36;;;;;;;1.30;1.30;;;;;;;;;;5115873;27;20019;-68
2023/10/29 02:30:02;;;;;;;2.03;1.50;;;;;;;;;;5119685;27;20779;-68
2023/10/29 02:32:28;;;;;;;1.70;1.60;;;;;;;;;;5114672;27;20141;-68
2023/10/29 02:34:54;;;;;;;1.48;1.40;;;;;;;;;;5118703;27;20027;-69
2023/10/29 02:37:20;;;;;;;1.60;1.50;;;;;;;;;;5112147;27;20090;-68
2023/10/29 02:39:47;;;;;;;1.58;1.48;;;;;;;;;;5118357;27;20034;-68
2023/10/29 02:42:16;;;;;;;1.63;1.52;;;;;;;;;;5104241;27;20269;-68
2023/10/29 02:44:43;;;;;;;2.80;1.50;;;;;;;;;;5115828;27;20031;-68
2023/10/29 02:47:09;;;;;;;1.45;1.38;;;;;;;;;;5115562;27;20038;-68
2023/10/29 02:49:38;;;;;;;1.85;1.70;;;;;;;;;;5111013;27;20023;-68
2023/10/29 02:52:04;;;;;;;1.95;1.73;;;;;;;;;;5096045;27;20077;-68
2023/10/29 02:54:30;;;;;;;1.70;1.60;;;;;;;;;;5119758;27;20020;-68
2023/10/29 02:56:57;;;;;;;2.10;1.73;;;;;;;;;;5103266;27;20019;-68
2023/10/29 02:59:23;;;;;;;2.22;1.73;;;;;;;;;;5117858;27;20024;-68
2023/10/29 03:01:49;;;;;;;1.90;1.70;;;;;;;;;;5121151;27;20195;-68
2023/10/29 03:04:15;;;;;;;2.00;1.75;;;;;;;;;;5119633;27;20023;-68
2023/10/29 03:06:41;;;;;;;2.42;2.17;;;;;;;;;;5103573;27;20427;-68
2023/10/29 03:09:08;;;;;;;3.78;1.80;;;;;;;;;;5118981;27;20035;-68
2023/10/29 03:11:34;;;;;;;2.20;2.00;;;;;;;;;;5117953;27;20038;-68
2023/10/29 03:14:00;;;;;;;2.67;2.13;;;;;;;;;;5110890;27;20638;-69
2023/10/29 03:16:26;;;;;;;2.78;2.25;;;;;;;;;;5120762;27;20047;-68
2023/10/29 03:18:52;;;;;;;3.53;2.35;;;;;;;;;;5118981;27;20038;-67
2023/10/29 03:21:18;;;;;;;2.20;2.00;;;;;;;;;;5114408;27;20038;-68
2023/10/29 03:23:44;;;;;;;5.07;2.47;;;;;;;;;;5115280;27;20039;-67
2023/10/29 03:26:13;;;;;;;2.28;2.08;;;;;;;;;;5117116;27;20030;-68
2023/10/29 03:28:41;;;;;;;3.22;2.10;;;;;;;;;;5117504;27;20054;-68
2023/10/29 03:31:11;;;;;;;4.60;2.20;;;;;;;;;;5095811;27;20115;-67
2023/10/29 03:33:37;;;;;;;2.63;2.25;;;;;;;;;;5096667;27;20034;-67
2023/10/29 03:36:04;;;;;;;3.60;2.33;;;;;;;;;;5103077;27;20055;-67
2023/10/29 03:38:30;;;;;;;2.65;2.20;;;;;;;;;;5120779;27;20050;-68
2023/10/29 03:40:56;;;;;;;5.20;2.38;;;;;;;;;;5113875;27;20547;-68
2023/10/29 03:43:22;;;;;;;2.80;2.35;;;;;;;;;;5109833;27;20059;-68
2023/10/29 03:45:49;;;;;;;3.97;2.53;;;;;;;;;;5110704;27;20036;-70
2023/10/29 03:48:15;;;;;;;5.45;2.85;;;;;;;;;;5115032;27;20453;-68
2023/10/29 03:50:44;;;;;;;2.65;2.10;;;;;;;;;;5117276;27;20460;-69
2023/10/29 03:53:10;;;;;;;2.90;2.28;;;;;;;;;;5113047;27;20031;-68
2023/10/29 03:55:37;;;;;;;3.55;2.17;;;;;;;;;;5118280;27;20365;-68
2023/10/29 03:58:04;;;;;;;3.35;2.40;;;;;;;;;;5102257;27;20027;-69
2023/10/29 04:00:30;;;;;;;4.07;2.70;;;;;;;;;;5093188;27;20374;-68
2023/10/29 04:02:56;;;;;;;2.40;2.20;;;;;;;;;;5108433;27;20082;-68
2023/10/29 04:05:22;;;;;;;2.88;2.28;;;;;;;;;;5112242;27;20444;-68
2023/10/29 04:07:49;;;;;;;2.75;2.10;;;;;;;;;;5114637;27;20035;-67
2023/10/29 04:10:18;;;;;;;6.68;2.70;;;;;;;;;;5102454;27;20092;-68
2023/10/29 04:12:44;;;;;;;2.80;2.50;;;;;;;;;;5101345;27;20024;-68
2023/10/29 04:15:11;;;;;;;3.75;2.28;;;;;;;;;;5120458;27;20118;-68
2023/10/29 04:17:38;;;;;;;3.67;2.00;;;;;;;;;;5093982;27;20115;-68
2023/10/29 04:20:05;;;;;;;2.85;2.15;;;;;;;;;;5096078;27;20019;-68
2023/10/29 04:22:32;;;;;;;3.50;2.13;;;;;;;;;;5114933;27;20028;-68
2023/10/29 04:24:59;;;;;;;4.40;2.13;;;;;;;;;;5118370;27;20404;-68
2023/10/29 04:27:25;;;;;;;2.25;2.05;;;;;;;;;;5119301;27;20060;-68
2023/10/29 04:29:51;;;;;;;2.90;2.10;;;;;;;;;;5115869;27;20023;-69
2023/10/29 04:32:17;;;;;;;3.85;2.55;;;;;;;;;;5114034;27;20038;-68
2023/10/29 04:34:43;;;;;;;2.60;2.38;;;;;;;;;;5120316;27;20033;-68
2023/10/29 04:37:09;;;;;;;4.05;2.70;;;;;;;;;;5098865;27;20027;-68
2023/10/29 04:39:35;;;;;;;2.10;1.85;;;;;;;;;;5105323;27;20026;-68
2023/10/29 04:42:01;;;;;;;3.00;2.15;;;;;;;;;;5111425;27;20052;-69
2023/10/29 04:44:27;;;;;;;2.85;1.98;;;;;;;;;;5120378;27;20110;-68
2023/10/29 04:46:54;;;;;;;3.03;2.20;;;;;;;;;;5115451;27;20524;-68
2023/10/29 04:49:20;;;;;;;1.92;1.75;;;;;;;;;;5101028;27;20055;-68
2023/10/29 04:51:46;;;;;;;3.40;2.50;;;;;;;;;;5110974;27;20276;-68
2023/10/29 04:54:12;;;;;;;3.00;2.75;;;;;;;;;;5115122;27;20555;-67
2023/10/29 04:56:38;;;;;;;2.85;2.65;;;;;;;;;;5114706;27;20154;-68
2023/10/29 04:59:04;;;;;;;3.65;2.28;;;;;;;;;;5109181;27;20363;-68
2023/10/29 05:01:30;;;;;;;2.38;2.17;;;;;;;;;;5114782;27;20114;-67
2023/10/29 05:03:56;;;;;;;3.38;2.08;;;;;;;;;;5108489;27;20027;-68
2023/10/29 05:06:23;;;;;;;3.50;2.20;;;;;;;;;;5119220;27;20023;-68
2023/10/29 05:08:52;;;;;;;2.70;2.25;;;;;;;;;;5095491;27;20077;-68
2023/10/29 05:11:18;;;;;;;3.20;2.33;;;;;;;;;;5108571;27;20038;-68
2023/10/29 05:13:44;;;;;;;3.80;2.05;;;;;;;;;;5113421;27;20027;-69
2023/10/29 05:16:11;;;;;;;3.40;2.25;;;;;;;;;;5103910;27;20027;-68
2023/10/29 05:18:37;;;;;;;3.83;2.35;;;;;;;;;;5116777;27;20024;-70
2023/10/29 05:21:04;;;;;;;2.17;1.92;;;;;;;;;;5111263;27;20019;-67
2023/10/29 05:23:30;;;;;;;2.55;2.10;;;;;;;;;;5116584;27;20023;-67
2023/10/29 05:25:56;;;;;;;5.53;2.10;;;;;;;;;;5104854;27;20037;-68
2023/10/29 05:28:22;;;;;;;2.40;2.20;;;;;;;;;;5122042;27;20039;-68
2023/10/29 05:30:48;;;;;;;2.97;2.30;;;;;;;;;;5113292;27;20089;-67
2023/10/29 05:33:15;;;;;;;3.70;2.30;;;;;;;;;;5124969;27;20475;-67
2023/10/29 05:35:41;;;;;;;3.92;2.28;;;;;;;;;;5114520;27;20560;-68
2023/10/29 05:38:07;;;;;;;2.63;2.40;;;;;;;;;;5116578;27;20023;-68
2023/10/29 05:40:33;;;;;;;2.63;2.22;;;;;;;;;;5117501;27;20046;-69
2023/10/29 05:42:59;;;;;;;4.45;2.50;;;;;;;;;;5118875;28;20441;-68
2023/10/29 05:45:25;;;;;;;3.25;2.17;;;;;;;;;;5114348;27;21275;-68
2023/10/29 05:47:51;;;;;;;2.60;2.20;;;;;;;;;;5117331;27;20038;-68
2023/10/29 05:50:18;;;;;;;2.78;2.15;;;;;;;;;;5103400;28;20027;-68
2023/10/29 05:52:45;;;;;;;2.95;2.40;;;;;;;;;;5116663;28;20026;-68
2023/10/29 05:55:12;;;;;;;3.22;2.10;;;;;;;;;;5105479;28;20341;-70
2023/10/29 05:57:38;;;;;;;3.38;2.28;;;;;;;;;;5114968;27;20055;-68
2023/10/29 06:00:04;;;;;;;3.63;2.88;;;;;;;;;;5110647;28;20463;-68
2023/10/29 06:02:30;;;;;;;4.47;3.28;;;;;;;;;;5116123;28;20094;-68
2023/10/29 06:04:56;;;;;;;4.10;2.67;;;;;;;;;;5109196;27;20343;-68
2023/10/29 06:07:23;;;;;;;3.30;2.97;;;;;;;;;;5104488;28;20445;-68
2023/10/29 06:09:49;;;;;;;3.05;2.55;;;;;;;;;;5119854;27;20046;-67
2023/10/29 06:12:15;;;;;;;8.07;3.08;;;;;;;;;;5120464;28;20042;-68
2023/10/29 06:14:45;;;;;;;3.45;2.70;;;;;;;;;;5114148;27;20031;-68
2023/10/29 06:17:11;;;;;;;3.22;2.47;;;;;;;;;;5115914;27;20035;-68
2023/10/29 06:19:39;;;;;;;2.60;2.20;;;;;;;;;;5093912;28;20031;-68
2023/10/29 06:22:06;;;;;;;2.83;2.45;;;;;;;;;;5104344;28;20458;-68
2023/10/29 06:24:32;;;;;;;2.95;2.33;;;;;;;;;;5092839;28;20384;-68
2023/10/29 06:26:59;;;;;;;2.83;2.28;;;;;;;;;;5096627;28;20031;-68
2023/10/29 06:29:25;;;;;;;3.22;2.47;;;;;;;;;;5085972;28;20051;-67
2023/10/29 06:31:51;;;;;;;3.40;2.78;;;;;;;;;;5097313;28;20367;-69
2023/10/29 06:34:17;;;;;;;3.13;2.50;;;;;;;;;;5106008;28;20024;-68
2023/10/29 06:36:44;;;;;;;3.47;2.30;;;;;;;;;;5089718;28;20110;-68
2023/10/29 06:39:10;;;;;;;4.03;2.15;;;;;;;;;;5103477;28;20396;-68
2023/10/29 06:41:36;;;;;;;5.40;3.00;;;;;;;;;;5108674;28;20043;-68
2023/10/29 06:44:02;;;;;;;6.75;3.53;;;;;;;;;;5112769;28;20027;-68
2023/10/29 06:46:28;;;;;;;6.65;3.45;;;;;;;;;;5115511;27;20031;-69
2023/10/29 06:48:54;;;;;;;4.10;3.10;;;;;;;;;;5093934;27;20039;-68
2023/10/29 06:51:21;;;;;;;3.65;2.92;;;;;;;;;;5118740;27;20539;-68
2023/10/29 06:53:47;;;;;;;3.25;2.47;;;;;;;;;;5119601;27;20383;-69
2023/10/29 06:56:13;;;;;;;2.65;2.38;;;;;;;;;;5118015;27;20718;-69
2023/10/29 06:58:39;;;;;;;2.78;2.13;;;;;;;;;;5121011;27;20494;-67
2023/10/29 07:01:08;;;;;;;3.13;2.50;;;;;;;;;;5122331;27;20063;-67
2023/10/29 07:03:34;;;;;;;10.38;5.28;;;;;;;;;;5121141;27;20023;-67
2023/10/29 07:06:07;;;;;;;13.27;7.97;;;;;;;;;;5119106;27;20400;-68
2023/10/29 07:08:34;;;;;;;10.98;5.72;;;;;;;;;;5122365;27;20388;-68
2023/10/29 07:11:01;;;;;;;4.95;3.80;;;;;;;;;;5124927;27;20484;-68
2023/10/29 07:13:27;;;;;;;13.32;6.72;;;;;;;;;;5117823;27;20031;-68
2023/10/29 07:15:54;;;;;;;6.25;3.42;;;;;;;;;;5121468;27;20019;-68
2023/10/29 07:18:20;;;;;;;4.57;2.95;;;;;;;;;;5119817;27;20034;-68
2023/10/29 07:20:46;;;;;;;9.60;3.00;;;;;;;;;;5118923;27;20027;-69
2023/10/29 07:23:13;;;;;;;5.05;3.20;;;;;;;;;;5119594;27;20023;-68
2023/10/29 07:25:39;;;;;;;4.13;3.08;;;;;;;;;;5120384;27;20031;-68
2023/10/29 07:28:05;;;;;;;4.07;2.80;;;;;;;;;;5118822;27;20484;-68
2023/10/29 07:30:31;;;;;;;4.97;2.50;;;;;;;;;;5121006;27;20027;-68
2023/10/29 07:32:57;;;;;;;3.25;2.50;;;;;;;;;;5116220;27;20036;-68
2023/10/29 07:35:23;;;;;;;5.88;2.65;;;;;;;;;;5115130;27;20046;-68
2023/10/29 07:37:50;;;;;;;4.65;2.63;;;;;;;;;;5123664;27;20036;-68
2023/10/29 07:40:16;;;;;;;4.15;2.60;;;;;;;;;;5113395;27;20138;-68
2023/10/29 07:42:42;;;;;;;2.72;2.30;;;;;;;;;;5118329;27;20117;-67
2023/10/29 07:45:08;;;;;;;3.45;2.53;;;;;;;;;;5118489;27;20023;-68
2023/10/29 07:47:34;;;;;;;28.65;15.15;;;;;;;;;;5117753;27;20906;-67
2023/10/29 07:50:00;;;;;;;15.05;9.70;;;;;;;;;;5120057;27;20157;-67
2023/10/29 07:52:26;;;;;;;6.70;4.43;;;;;;;;;;5115923;27;20091;-68
2023/10/29 07:54:53;;;;;;;5.40;3.75;;;;;;;;;;5124729;27;20069;-69
2023/10/29 07:57:19;;;;;;;8.85;5.00;;;;;;;;;;5115442;27;20028;-67
2023/10/29 07:59:46;;;;;;;4.15;3.30;;;;;;;;;;5113570;27;20407;-67
2023/10/29 08:02:12;;;;;;;3.58;2.75;;;;;;;;;;5118157;27;20023;-67
2023/10/29 08:04:38;;;;;;;3.70;2.00;;;;;;;;;;5119619;27;20011;-67
2023/10/29 08:07:04;;;;;;;5.18;3.30;;;;;;;;;;5118538;27;20034;-67
2023/10/29 08:09:30;;;;;;;3.85;2.30;;;;;;;;;;5119833;27;20675;-68
2023/10/29 08:11:57;;;;;;;4.25;2.58;;;;;;;;;;5110754;27;20024;-67
2023/10/29 08:14:23;;;;;;;3.55;2.50;;;;;;;;;;5117194;27;20031;-68
2023/10/29 08:16:49;;;;;;;3.60;2.10;;;;;;;;;;5117508;27;20084;-68
2023/10/29 08:19:15;;;;;;;4.53;2.00;;;;;;;;;;5117313;27;20019;-67
2023/10/29 08:21:42;;;;;;;2.58;1.90;;;;;;;;;;5118243;27;20024;-68
2023/10/29 08:24:08;;;;;;;2.63;2.22;;;;;;;;;;5114253;27;20024;-68
2023/10/29 08:26:34;;;;;;;2.30;2.10;;;;;;;;;;5118698;27;20031;-67
2023/10/29 08:29:00;;;;;;;2.88;1.90;;;;;;;;;;5116790;27;20058;-68
2023/10/29 08:31:27;;;;;;;3.80;1.98;;;;;;;;;;5121756;27;20029;-68
2023/10/29 08:33:54;;;;;;;3.13;1.98;;;;;;;;;;5121293;27;20031;-68
2023/10/29 08:36:21;;;;;;;1.98;1.77;;;;;;;;;;5112758;27;20085;-63
2023/10/29 08:38:47;;;;;;;2.45;2.00;;;;;;;;;;5120067;27;20415;-63
2023/10/29 08:41:16;;;;;;;2.88;1.95;;;;;;;;;;5117944;27;20042;-64
2023/10/29 08:43:43;;;;;;;2.30;1.95;;;;;;;;;;5117060;27;20031;-63
2023/10/29 08:46:09;;;;;;;2.92;2.28;;;;;;;;;;5118062;27;20027;-64
2023/10/29 08:48:35;;;;;;;2.78;2.10;;;;;;;;;;5110800;27;20898;-63
2023/10/29 08:51:01;;;;;;;2.88;1.92;;;;;;;;;;5117711;27;20046;-63
2023/10/29 08:53:27;;;;;;;2.60;2.28;;;;;;;;;;5117574;27;20027;-62
2023/10/29 08:55:54;;;;;;;3.55;2.63;;;;;;;;;;5113557;27;20023;-64
2023/10/29 08:58:23;;;;;;;3.50;2.33;;;;;;;;;;5118656;27;20102;-66
2023/10/29 09:00:51;;;;;;;2.83;2.45;;;;;;;;;;5111328;27;20058;-63
2023/10/29 09:03:26;;;;;;;2.58;2.10;;;;;;;;;;5115148;27;20545;-63
2023/10/29 09:05:53;;;;;;;;;;;;;;;;;;5115493;27;20110;-64
2023/10/29 09:08:19;;;;;;;3.85;2.70;;;;;;;;;;5115457;27;19923;-63
2023/10/29 09:10:45;;;;;;;4.15;2.38;;;;;;;;;;5117223;27;20399;-63
2023/10/29 09:13:12;;;;;;;3.40;2.03;;;;;;;;;;5112979;27;20072;-63
2023/10/29 09:15:38;;;;;;;3.30;2.40;;;;;;;;;;5117684;27;20536;-63
2023/10/29 09:18:04;;;;;;;2.25;1.90;;;;;;;;;;5113341;27;20304;-63
2023/10/29 09:20:32;;;;;;;6.60;2.33;;;;;;;;;;5112242;27;20031;-64
2023/10/29 09:22:58;;;;;;;4.15;2.13;;;;;;;;;;5110163;27;20027;-63
2023/10/29 09:25:24;;;;;;;3.15;2.50;;;;;;;;;;5118580;27;20041;-63
2023/10/29 09:27:50;;;;;;;3.08;2.20;;;;;;;;;;5106448;27;20130;-63
2023/10/29 09:30:16;;;;;;;2.63;2.05;;;;;;;;;;5112719;27;20092;-64
2023/10/29 09:32:42;;;;;;;2.95;2.22;;;;;;;;;;5114321;27;20024;-64
2023/10/29 09:35:09;;;;;;;5.35;2.08;;;;;;;;;;5112377;27;20026;-63
2023/10/29 09:37:35;;;;;;;7.18;2.40;;;;;;;;;;5109897;27;20537;-65
2023/10/29 09:40:02;;;;;;;2.40;2.08;;;;;;;;;;5113052;27;20035;-64
2023/10/29 09:42:29;;;;;;;2.90;2.38;;;;;;;;;;5109016;27;20397;-63
2023/10/29 09:44:58;;;;;;;3.10;2.55;;;;;;;;;;5121630;27;20122;-64
2023/10/29 09:47:26;;;;;;;6.15;3.13;;;;;;;;;;5122159;27;20452;-63
2023/10/29 09:49:54;;;;;;;3.90;2.25;;;;;;;;;;5122256;27;20043;-63
2023/10/29 09:52:30;;;;;;;5.32;2.92;;;;;;;;;;5106594;28;20065;-63
2023/10/29 09:54:56;;;;;;;5.05;2.92;;;;;;;;;;5109385;28;20037;-63
2023/10/29 09:57:23;;;;;;;5.25;3.10;;;;;;;;;;5119074;28;20019;-64
2023/10/29 09:59:49;;;;;;;4.07;2.80;;;;;;;;;;5115588;28;20266;-64
2023/10/29 10:02:15;;;;;;;4.85;3.25;;;;;;;;;;5107834;28;20027;-63
2023/10/29 10:04:41;;;;;;;6.05;3.70;;;;;;;;;;5122417;28;20034;-63
2023/10/29 10:07:08;;;;;;;5.85;3.65;;;;;;;;;;5113017;28;20053;-63
2023/10/29 10:09:52;;;;;;;4.40;3.55;;;;;;;;;;5116385;28;20026;-63
2023/10/29 10:12:19;;;;;;;4.45;3.58;;;;;;;;;;5110273;28;20047;-66
2023/10/29 10:14:45;;;;;;;4.88;3.53;;;;;;;;;;5114412;28;20135;-63
2023/10/29 10:17:12;;;;;;;6.28;3.22;;;;;;;;;;5117007;28;20408;-64
2023/10/29 10:19:40;;;;;;;7.78;2.85;;;;;;;;;;5119434;28;20876;-64
2023/10/29 10:22:07;;;;;;;6.03;3.70;;;;;;;;;;5125028;27;20031;-68
2023/10/29 10:24:40;;;;;;;3.70;2.70;;;;;;;;;;5125060;27;20042;-63
2023/10/29 10:27:07;;;;;;;5.13;3.20;;;;;;;;;;5115613;27;20027;-63
2023/10/29 10:29:33;;;;;;;12.35;7.53;;;;;;;;;;5122098;27;20019;-65
2023/10/29 10:32:04;;;;;;;6.68;3.90;;;;;;;;;;5117027;27;20387;-63
2023/10/29 10:34:39;;;;;;;5.03;3.00;;;;;;;;;;5122506;27;20031;-64
2023/10/29 10:37:06;;;;;;;4.30;2.75;;;;;;;;;;5117397;27;20102;-63
2023/10/29 10:39:32;;;;;;;5.30;2.58;;;;;;;;;;5121176;27;20403;-64
2023/10/29 10:42:03;;;;;;;2.40;2.03;;;;;;;;;;5111376;27;20427;-65
2023/10/29 10:44:30;;;;;;;4.20;2.00;;;;;;;;;;5113256;27;20108;-63
2023/10/29 10:46:58;;;;;;;4.60;2.38;;;;;;;;;;5114824;27;20038;-64
2023/10/29 10:49:24;;;;;;;9.35;3.15;;;;;;;;;;5115730;27;20031;-63
2023/10/29 10:51:58;;;;;;;5.57;2.55;;;;;;;;;;5107521;27;20579;-63
2023/10/29 10:54:25;;;;;;;3.75;2.55;;;;;;;;;;5110119;27;20095;-63
2023/10/29 10:56:52;;;;;;;3.60;2.15;;;;;;;;;;5109565;27;20019;-63
2023/10/29 10:59:19;;;;;;;2.88;2.03;;;;;;;;;;5112234;27;20595;-63
2023/10/29 11:01:45;;;;;;;2.30;1.92;;;;;;;;;;5120655;27;20026;-64
2023/10/29 11:04:12;;;;;;;4.65;2.13;;;;;;;;;;5121711;27;20093;-64
2023/10/29 11:06:39;;;;;;;2.58;2.20;;;;;;;;;;5119291;27;20027;-64
2023/10/29 11:09:06;;;;;;;3.80;2.00;;;;;;;;;;5120472;27;20023;-66
2023/10/29 11:11:38;;;;;;;2.65;1.75;;;;;;;;;;5112122;27;21099;-68
2023/10/29 11:14:12;;;;;;;6.70;2.05;;;;;;;;;;5116430;27;20283;-64
2023/10/29 11:16:48;;;;;;;2.80;1.67;;;;;;;;;;5119975;27;20023;-64
2023/10/29 11:19:35;;;;;;;3.53;1.70;;;;;;;;;;5115700;27;20084;-64
2023/10/29 11:22:13;;;;;;;2.08;1.55;;;;;;;;;;5110052;27;20108;-68
2023/10/29 11:24:40;;;;;;;4.88;1.83;;;;;;;;;;5116124;27;20114;-65
2023/10/29 11:27:25;;;;;;;7.65;2.10;;;;;;;;;;5119497;27;20068;-64
2023/10/29 11:29:51;;;;;;;5.50;1.90;;;;;;;;;;5118785;27;20035;-65
2023/10/29 11:32:24;;;;;;;5.88;2.10;;;;;;;;;;5123488;27;20055;-63
2023/10/29 11:35:10;;;;;;;2.50;2.00;;;;;;;;;;5116638;27;20495;-63
2023/10/29 11:37:37;;;;;;;4.50;2.25;;;;;;;;;;5113559;27;20404;-64
2023/10/29 11:40:37;;;;;;;3.78;2.20;;;;;;;;;;5118973;27;20142;-64
2023/10/29 11:43:23;;;;;;;2.25;1.80;;;;;;;;;;5091902;28;20043;-63
2023/10/29 11:45:59;;;;;;;2.63;2.17;;;;;;;;;;5112799;27;20044;-63
2023/10/29 11:48:25;;;;;;;5.38;2.10;;;;;;;;;;5118013;27;20035;-63
2023/10/29 11:51:14;;;;;;;5.15;2.33;;;;;;;;;;5121408;27;20136;-63
2023/10/29 11:53:41;;;;;;;2.35;1.70;;;;;;;;;;5105671;27;20065;-63
2023/10/29 11:56:09;;;;;;;4.53;2.00;;;;;;;;;;5111182;27;20024;-62
2023/10/29 11:58:36;;;;;;;7.38;2.30;;;;;;;;;;5112627;27;20028;-63
2023/10/29 12:01:02;;;;;;;1.95;1.75;;;;;;;;;;5111808;27;20024;-63
2023/10/29 12:03:32;;;;;;;3.67;2.25;;;;;;;;;;5115076;27;20030;-63
2023/10/29 12:05:58;;;;;;;4.28;1.48;;;;;;;;;;5110739;27;20107;-63
2023/10/29 12:08:26;;;;;;;4.05;2.03;;;;;;;;;;5113825;27;20383;-63
2023/10/29 12:10:55;;;;;;;5.13;1.88;;;;;;;;;;5116470;27;20055;-63
2023/10/29 12:13:22;;;;;;;5.70;2.10;;;;;;;;;;5110160;27;20031;-64
2023/10/29 12:16:00;;;;;;;2.00;1.80;;;;;;;;;;5122190;27;20315;-63
2023/10/29 12:18:27;;;;;;;2.33;1.67;;;;;;;;;;5115162;27;20022;-63
2023/10/29 12:21:04;;;;;;;2.08;1.90;;;;;;;;;;5108021;27;20106;-64
2023/10/29 12:23:31;;;;;;;8.93;2.35;;;;;;;;;;5113143;27;20911;-63
2023/10/29 12:25:57;;;;;;;3.08;1.98;;;;;;;;;;5104685;27;20049;-65
2023/10/29 12:28:24;;;;;;;1.92;1.70;;;;;;;;;;5119164;27;20072;-64
2023/10/29 12:30:50;;;;;;;3.35;1.90;;;;;;;;;;5113090;27;20392;-64
2023/10/29 12:33:25;;;;;;;1.75;1.40;;;;;;;;;;5121904;27;20030;-64
2023/10/29 12:35:52;;;;;;;3.20;1.98;;;;;;;;;;5104476;27;20717;-65
2023/10/29 12:38:18;;;;;;;3.28;1.98;;;;;;;;;;5107976;27;20066;-65
2023/10/29 12:41:04;;;;;;;2.58;2.00;;;;;;;;;;5115303;27;20568;-65
2023/10/29 12:43:37;;;;;;;2.90;1.80;;;;;;;;;;5110792;27;20366;-65
2023/10/29 12:46:05;;;;;;;6.00;1.88;;;;;;;;;;5110383;27;20040;-65
2023/10/29 12:48:32;;;;;;;2.15;1.73;;;;;;;;;;5110558;27;20019;-66
2023/10/29 12:50:58;;;;;;;2.40;1.85;;;;;;;;;;5114571;27;20032;-65
2023/10/29 12:53:28;;;;;;;3.10;1.63;;;;;;;;;;5118720;27;20218;-66
2023/10/29 12:55:54;;;;;;;2.15;1.63;;;;;;;;;;5108758;27;20032;-65
2023/10/29 12:58:21;;;;;;;3.92;1.80;;;;;;;;;;5116426;27;20194;-65
2023/10/29 13:00:47;;;;;;;12.32;2.20;;;;;;;;;;5119466;27;20546;-66
2023/10/29 13:03:13;;;;;;;4.65;1.90;;;;;;;;;;5111732;27;20027;-64
2023/10/29 13:05:39;;;;;;;4.95;2.00;;;;;;;;;;5105686;27;20038;-64
2023/10/29 13:08:06;;;;;;;4.57;1.83;;;;;;;;;;5111619;27;20097;-64
2023/10/29 13:10:35;;;;;;;3.22;1.77;;;;;;;;;;5095266;27;20104;-64
2023/10/29 13:13:02;;;;;;;6.50;1.90;;;;;;;;;;5116224;27;20042;-64
2023/10/29 13:15:29;;;;;;;3.88;1.90;;;;;;;;;;5116157;27;20019;-64
2023/10/29 13:17:56;;;;;;;2.55;1.80;;;;;;;;;;5109319;27;20326;-64
2023/10/29 13:20:25;;;;;;;3.70;2.05;;;;;;;;;;5118864;27;20027;-63
2023/10/29 13:22:51;;;;;;;2.55;1.83;;;;;;;;;;5121655;27;20399;-66
2023/10/29 13:25:17;;;;;;;2.42;1.63;;;;;;;;;;5120484;27;20059;-64
2023/10/29 13:27:43;;;;;;;2.10;1.90;;;;;;;;;;5113957;27;20392;-63
2023/10/29 13:30:10;;;;;;;3.78;1.98;;;;;;;;;;5116081;27;20087;-64
2023/10/29 13:32:36;;;;;;;4.63;1.98;;;;;;;;;;5110081;27;20027;-64
2023/10/29 13:35:02;;;;;;;4.97;1.98;;;;;;;;;;5108877;27;20027;-63
2023/10/29 13:37:30;;;;;;;4.47;2.13;;;;;;;;;;5118186;27;20515;-63
2023/10/29 13:39:59;;;;;;;5.57;3.58;;;;;;;;;;5118448;27;20560;-63
2023/10/29 13:42:25;;;;;;;2.10;1.70;;;;;;;;;;5106610;27;20104;-63
2023/10/29 13:44:54;;;;;;;2.10;1.70;;;;;;;;;;5095368;28;20019;-63
2023/10/29 13:47:20;;;;;;;7.65;3.25;;;;;;;;;;5117385;27;20023;-63
2023/10/29 13:49:47;;;;;;;12.32;4.60;;;;;;;;;;5096549;28;20260;-65
2023/10/29 13:52:13;;;;;;;4.55;2.38;;;;;;;;;;5112777;27;20060;-64
2023/10/29 13:54:39;;;;;;;6.47;2.42;;;;;;;;;;5102814;27;20020;-63
2023/10/29 13:57:05;;;;;;;5.53;2.35;;;;;;;;;;5113303;27;20028;-63
2023/10/29 13:59:31;;;;;;;4.10;2.42;;;;;;;;;;5116933;28;20031;-64
2023/10/29 14:01:58;;;;;;;7.60;3.03;;;;;;;;;;5116492;28;20016;-64
2023/10/29 14:04:24;;;;;;;5.63;2.10;;;;;;;;;;5098519;28;20507;-63
2023/10/29 14:06:50;;;;;;;4.68;2.60;;;;;;;;;;5111734;27;20095;-63
2023/10/29 14:09:16;;;;;;;4.00;2.30;;;;;;;;;;5118045;27;20027;-64
2023/10/29 14:11:42;;;;;;;3.83;1.90;;;;;;;;;;5107855;28;20019;-63
2023/10/29 14:14:08;;;;;;;3.85;2.53;;;;;;;;;;5119380;28;20019;-63
2023/10/29 14:16:38;;;;;;;3.45;2.33;;;;;;;;;;5115876;27;20088;-63
2023/10/29 14:19:05;;;;;;;5.80;3.40;;;;;;;;;;5121030;28;20422;-64
2023/10/29 14:21:31;;;;;;;6.30;3.10;;;;;;;;;;5102853;28;20091;-63
2023/10/29 14:23:57;;;;;;;8.90;3.22;;;;;;;;;;5107346;28;20039;-64
2023/10/29 14:26:24;;;;;;;8.48;2.50;;;;;;;;;;5116393;27;20028;-64
2023/10/29 14:28:52;;;;;;;5.65;2.50;;;;;;;;;;5113836;28;20027;-64
2023/10/29 14:31:18;;;;;;;6.30;2.80;;;;;;;;;;5088070;28;20164;-64
2023/10/29 14:33:44;;;;;;;7.18;2.47;;;;;;;;;;5088595;27;20348;-64
2023/10/29 14:36:10;;;;;;;3.65;2.10;;;;;;;;;;5093490;27;20596;-63
2023/10/29 14:38:37;;;;;;;8.05;3.30;;;;;;;;;;5101862;27;20106;-64
2023/10/29 14:41:03;;;;;;;5.40;2.33;;;;;;;;;;5117501;28;20546;-64
2023/10/29 14:43:30;;;;;;;3.85;1.80;;;;;;;;;;5121163;27;20122;-64